createdAt,value
2017-10-19T00:02:29.550Z,95.90
2017-10-19T00:05:31.898Z,95.90
2017-10-19T00:08:33.899Z,96.00
2017-10-19T00:11:37.193Z,96.00
2017-10-19T00:14:39.239Z,96.00
2017-10-19T00:17:41.440Z,96.00
2017-10-19T00:20:43.604Z,96.00
2017-10-19T00:23:45.687Z,96.00
2017-10-19T00:26:47.672Z,96.10
2017-10-19T00:29:49.790Z,96.10
2017-10-19T00:32:51.870Z,96.10
2017-10-19T00:35:54.752Z,96.20
2017-10-19T00:38:56.930Z,96.20
2017-10-19T00:41:58.928Z,96.20
2017-10-19T00:45:00.897Z,96.20
2017-10-19T00:48:02.882Z,96.40
2017-10-19T00:51:04.851Z,96.00
2017-10-19T00:54:07.357Z,96.00
2017-10-19T00:57:09.313Z,96.00
2017-10-19T01:00:12.080Z,96.00
2017-10-19T01:03:14.053Z,96.00
2017-10-19T01:06:16.117Z,96.00
2017-10-19T01:09:18.203Z,96.00
2017-10-19T01:12:20.191Z,96.00
2017-10-19T01:15:22.151Z,96.00
2017-10-19T01:18:24.140Z,96.10
2017-10-19T01:21:26.115Z,96.20
2017-10-19T01:24:28.100Z,96.30
2017-10-19T01:27:30.055Z,96.30
2017-10-19T01:30:33.204Z,96.30
2017-10-19T01:33:35.184Z,96.30
2017-10-19T01:36:37.213Z,96.30
2017-10-19T01:39:44.317Z,96.30
2017-10-19T01:42:46.313Z,96.30
2017-10-19T01:45:48.532Z,96.30
2017-10-19T01:48:51.662Z,96.30
2017-10-19T01:51:53.621Z,96.30
2017-10-19T01:54:56.610Z,96.30
2017-10-19T01:57:58.636Z,96.20
2017-10-19T02:01:01.034Z,96.20
2017-10-19T02:04:03.107Z,96.20
2017-10-19T02:07:05.073Z,96.30
2017-10-19T02:10:07.768Z,96.20
2017-10-19T02:13:10.897Z,96.30
2017-10-19T02:16:12.851Z,96.20
2017-10-19T02:19:14.883Z,96.30
2017-10-19T02:22:16.821Z,96.20
2017-10-19T02:25:19.163Z,96.20
2017-10-19T02:28:21.198Z,96.40
2017-10-19T02:31:24.311Z,96.20
2017-10-19T02:34:26.309Z,96.20
2017-10-19T02:37:29.123Z,96.30
2017-10-19T02:40:31.085Z,96.20
2017-10-19T02:43:33.906Z,96.40
2017-10-19T02:46:35.901Z,96.30
2017-10-19T02:49:38.269Z,96.30
2017-10-19T02:52:41.050Z,96.50
2017-10-19T02:55:43.346Z,96.50
2017-10-19T02:58:45.291Z,96.50
2017-10-19T03:01:47.649Z,96.60
2017-10-19T03:04:49.617Z,96.60
2017-10-19T03:07:52.335Z,96.70
2017-10-19T03:10:54.400Z,96.70
2017-10-19T03:13:57.207Z,96.80
2017-10-19T03:16:59.933Z,96.80
2017-10-19T03:20:01.915Z,96.70
2017-10-19T03:23:03.858Z,96.80
2017-10-19T03:26:05.811Z,96.80
2017-10-19T03:29:07.742Z,97.10
2017-10-19T03:32:10.863Z,96.80
2017-10-19T03:35:12.792Z,96.70
2017-10-19T03:38:14.759Z,96.70
2017-10-19T03:41:16.786Z,96.80
2017-10-19T03:44:19.610Z,96.80
2017-10-19T03:47:21.555Z,96.80
2017-10-19T03:50:23.841Z,96.80
2017-10-19T03:53:25.844Z,96.90
2017-10-19T03:56:28.955Z,97.20
2017-10-19T03:59:31.744Z,96.90
2017-10-19T04:02:34.651Z,96.80
2017-10-19T04:05:36.658Z,96.90
2017-10-19T04:08:39.553Z,96.90
2017-10-19T04:11:41.549Z,97.00
2017-10-19T04:14:43.500Z,96.90
2017-10-19T04:17:45.511Z,96.90
2017-10-19T04:20:48.268Z,96.80
2017-10-19T04:23:50.283Z,96.80
2017-10-19T04:26:53.420Z,97.40
2017-10-19T04:29:55.359Z,97.30
2017-10-19T04:32:57.359Z,97.30
2017-10-19T04:35:59.472Z,97.30
2017-10-19T04:39:01.670Z,97.30
2017-10-19T04:42:03.595Z,97.30
2017-10-19T04:45:05.906Z,97.30
2017-10-19T04:48:08.697Z,97.40
2017-10-19T04:51:10.702Z,97.40
2017-10-19T04:54:13.492Z,97.30
2017-10-19T04:57:15.606Z,97.30
2017-10-19T05:00:17.578Z,97.40
2017-10-19T05:03:19.947Z,97.40
2017-10-19T05:06:21.950Z,97.40
2017-10-19T05:09:24.838Z,97.50
2017-10-19T05:12:27.534Z,97.50
2017-10-19T05:15:29.826Z,97.50
2017-10-19T05:18:32.518Z,97.80
2017-10-19T05:21:34.633Z,97.50
2017-10-19T05:24:36.601Z,97.50
2017-10-19T05:27:39.481Z,97.50
2017-10-19T05:30:41.425Z,97.50
2017-10-19T05:33:44.691Z,97.50
2017-10-19T05:36:46.756Z,97.60
2017-10-19T05:39:49.090Z,97.50
2017-10-19T05:42:51.264Z,97.60
2017-10-19T05:45:54.089Z,97.50
2017-10-19T05:48:56.029Z,97.50
2017-10-19T05:51:57.974Z,97.50
2017-10-19T05:54:59.921Z,97.50
2017-10-19T05:58:03.011Z,97.60
2017-10-19T06:01:05.022Z,97.60
2017-10-19T06:04:07.078Z,97.60
2017-10-19T06:07:09.086Z,97.60
2017-10-19T06:10:11.481Z,97.60
2017-10-19T06:13:13.457Z,97.60
2017-10-19T06:16:16.559Z,97.50
2017-10-19T06:19:19.373Z,97.50
2017-10-19T06:22:22.478Z,97.50
2017-10-19T06:25:25.270Z,97.50
2017-10-19T06:28:28.373Z,97.60
2017-10-19T06:31:30.774Z,97.50
2017-10-19T06:34:33.902Z,97.60
2017-10-19T06:37:35.878Z,97.50
2017-10-19T06:40:38.607Z,97.50
2017-10-19T06:43:40.546Z,97.50
2017-10-19T06:46:43.359Z,97.60
2017-10-19T06:49:46.182Z,97.40
2017-10-19T06:52:48.161Z,97.40
2017-10-19T06:55:50.942Z,97.30
2017-10-19T06:58:53.742Z,97.30
2017-10-19T07:01:56.537Z,97.50
2017-10-19T07:04:58.481Z,97.20
2017-10-19T07:08:00.526Z,97.10
2017-10-19T07:11:03.653Z,96.50
2017-10-19T07:14:05.608Z,96.50
2017-10-19T07:17:08.896Z,96.40
2017-10-19T07:20:10.925Z,96.40
2017-10-19T07:23:12.978Z,96.40
2017-10-19T07:26:14.902Z,96.30
2017-10-19T07:29:17.251Z,95.90
2017-10-19T07:32:19.190Z,95.70
2017-10-19T07:35:21.526Z,95.80
2017-10-19T07:38:23.503Z,95.60
2017-10-19T07:41:25.458Z,95.30
2017-10-19T07:44:27.482Z,95.10
2017-10-19T07:47:30.201Z,95.00
2017-10-19T07:50:32.159Z,95.00
2017-10-19T07:53:34.974Z,94.70
2017-10-19T07:56:37.759Z,94.70
2017-10-19T07:59:40.058Z,94.70
2017-10-19T08:02:42.802Z,94.50
2017-10-19T08:05:44.750Z,94.50
2017-10-19T08:08:47.638Z,94.40
2017-10-19T08:11:50.245Z,94.40
2017-10-19T08:14:52.970Z,93.90
2017-10-19T08:17:55.394Z,93.80
2017-10-19T08:20:57.433Z,93.40
2017-10-19T08:24:00.461Z,93.20
2017-10-19T08:27:03.214Z,93.20
2017-10-19T08:30:05.494Z,92.90
2017-10-19T08:33:07.464Z,92.70
2017-10-19T08:36:09.788Z,92.30
2017-10-19T08:39:12.599Z,91.60
2017-10-19T08:42:15.708Z,91.40
2017-10-19T08:45:19.386Z,90.60
2017-10-19T08:48:21.727Z,90.50
2017-10-19T08:51:24.530Z,90.10
2017-10-19T08:54:27.578Z,89.90
2017-10-19T08:57:29.649Z,89.90
2017-10-19T09:00:32.197Z,90.20
2017-10-19T09:03:34.230Z,91.00
2017-10-19T09:06:36.573Z,91.40
2017-10-19T09:09:38.529Z,91.50
2017-10-19T09:12:40.958Z,91.00
2017-10-19T09:15:42.883Z,91.20
2017-10-19T09:18:45.246Z,91.20
2017-10-19T09:21:47.970Z,91.00
2017-10-19T09:24:50.339Z,91.00
2017-10-19T09:27:53.135Z,90.70
2017-10-19T09:30:55.342Z,90.60
2017-10-19T09:33:57.297Z,88.90
2017-10-19T09:36:59.595Z,87.30
2017-10-19T09:40:02.321Z,87.70
2017-10-19T09:43:04.602Z,87.10
2017-10-19T09:46:07.333Z,84.40
2017-10-19T09:49:10.229Z,84.20
2017-10-19T09:52:12.162Z,84.80
2017-10-19T09:55:14.183Z,85.30
2017-10-19T09:58:16.892Z,84.10
2017-10-19T10:01:18.956Z,84.10
2017-10-19T10:04:21.782Z,79.90
2017-10-19T10:07:24.318Z,79.30
2017-10-19T10:10:26.376Z,79.90
2017-10-19T10:13:28.328Z,80.40
2017-10-19T10:16:31.445Z,80.30
2017-10-19T10:19:34.266Z,78.60
2017-10-19T10:22:36.245Z,78.60
2017-10-19T10:25:38.196Z,75.40
2017-10-19T10:28:41.321Z,67.10
2017-10-19T10:31:44.055Z,58.20
2017-10-19T10:34:46.419Z,58.10
2017-10-19T10:37:49.151Z,46.90
2017-10-19T10:40:51.221Z,46.90
2017-10-19T10:43:53.185Z,47.00
2017-10-19T10:46:56.250Z,46.50
2017-10-19T10:49:59.122Z,46.40
2017-10-19T10:53:01.097Z,47.60
2017-10-19T10:56:03.031Z,47.30
2017-10-19T10:59:05.362Z,48.20
2017-10-19T11:02:08.181Z,48.60
2017-10-19T11:05:10.574Z,48.50
2017-10-19T11:08:12.537Z,48.10
2017-10-19T11:11:15.353Z,46.20
2017-10-19T11:14:17.335Z,46.70
2017-10-19T11:17:19.703Z,46.00
2017-10-19T11:20:21.678Z,46.40
2017-10-19T11:23:23.667Z,46.60
2017-10-19T11:26:25.671Z,45.40
2017-10-19T11:29:27.638Z,43.00
2017-10-19T11:32:30.401Z,37.40
2017-10-19T11:35:32.378Z,37.20
2017-10-19T11:38:34.302Z,36.70
2017-10-19T11:41:37.117Z,37.00
2017-10-19T11:44:39.082Z,36.30
2017-10-19T11:47:41.501Z,33.90
2017-10-19T11:50:43.462Z,34.30
2017-10-19T11:53:46.199Z,34.60
2017-10-19T11:56:48.155Z,34.00
2017-10-19T11:59:50.897Z,35.40
2017-10-19T12:02:52.866Z,35.30
2017-10-19T12:05:54.902Z,34.60
2017-10-19T12:08:56.927Z,34.50
2017-10-19T12:12:01.390Z,31.90
2017-10-19T12:15:03.386Z,31.80
2017-10-19T12:18:05.701Z,33.30
2017-10-19T12:21:07.714Z,35.10
2017-10-19T12:24:09.784Z,34.80
2017-10-19T12:27:12.602Z,35.40
2017-10-19T12:30:14.728Z,35.40
2017-10-19T12:33:16.775Z,35.60
2017-10-19T12:36:19.880Z,38.40
2017-10-19T12:39:21.838Z,38.40
2017-10-19T12:42:24.234Z,40.10
2017-10-19T12:45:26.218Z,41.90
2017-10-19T12:48:28.954Z,43.30
2017-10-19T12:51:30.910Z,43.20
2017-10-19T12:54:34.043Z,42.30
2017-10-19T12:57:35.974Z,42.20
2017-10-19T13:00:38.005Z,41.90
2017-10-19T13:03:40.071Z,41.20
2017-10-19T13:06:42.902Z,42.00
2017-10-19T13:09:44.850Z,42.00
2017-10-19T13:12:48.068Z,41.50
2017-10-19T13:15:50.890Z,42.30
2017-10-19T13:18:52.908Z,42.30
2017-10-19T13:21:55.058Z,42.80
2017-10-19T13:24:57.125Z,43.90
2017-10-19T13:27:59.887Z,45.90
2017-10-19T13:31:02.225Z,45.80
2017-10-19T13:34:05.041Z,47.70
2017-10-19T13:37:07.330Z,47.60
2017-10-19T13:40:09.419Z,49.30
2017-10-19T13:43:12.086Z,50.30
2017-10-19T13:46:14.214Z,50.90
2017-10-19T13:49:17.060Z,51.70
2017-10-19T13:52:19.453Z,52.60
2017-10-19T13:55:21.390Z,53.80
2017-10-19T13:58:23.446Z,53.50
2017-10-19T14:01:26.156Z,54.70
2017-10-19T14:04:28.145Z,54.60
2017-10-19T14:07:30.942Z,56.50
2017-10-19T14:10:33.753Z,57.30
2017-10-19T14:13:35.728Z,57.30
2017-10-19T14:16:38.469Z,59.30
2017-10-19T14:19:40.514Z,59.30
2017-10-19T14:22:43.265Z,61.00
2017-10-19T14:25:45.330Z,61.10
2017-10-19T14:28:47.394Z,61.50
2017-10-19T14:31:49.393Z,62.20
2017-10-19T14:34:51.579Z,63.10
2017-10-19T14:37:53.552Z,64.10
2017-10-19T14:40:55.515Z,64.60
2017-10-19T14:43:58.346Z,66.00
2017-10-19T14:47:00.725Z,66.00
2017-10-19T14:50:02.670Z,66.70
2017-10-19T14:53:05.073Z,67.30
2017-10-19T14:56:07.146Z,67.80
2017-10-19T14:59:10.583Z,69.00
2017-10-19T15:02:13.390Z,69.70
2017-10-19T15:05:17.739Z,70.70
2017-10-19T15:08:20.446Z,71.10
2017-10-19T15:11:22.419Z,71.10
2017-10-19T15:14:25.137Z,72.10
2017-10-19T15:17:27.522Z,72.10
2017-10-19T15:20:29.499Z,72.60
2017-10-19T15:23:31.490Z,73.10
2017-10-19T15:26:33.471Z,73.60
2017-10-19T15:29:37.558Z,74.00
2017-10-19T15:32:39.570Z,74.90
2017-10-19T15:35:41.602Z,75.60
2017-10-19T15:38:43.680Z,76.20
2017-10-19T15:41:45.638Z,76.70
2017-10-19T15:44:48.439Z,77.80
2017-10-19T15:47:51.235Z,78.30
2017-10-19T15:51:06.684Z,79.00
2017-10-19T15:54:09.041Z,79.00
2017-10-19T15:57:11.759Z,80.30
2017-10-19T16:00:13.747Z,80.20
2017-10-19T16:03:15.674Z,81.00
2017-10-19T16:06:17.644Z,81.60
2017-10-19T16:09:19.586Z,82.30
2017-10-19T16:12:22.327Z,83.50
2017-10-19T16:15:24.310Z,84.20
2017-10-19T16:18:26.338Z,84.50
2017-10-19T16:21:28.330Z,85.10
2017-10-19T16:24:31.897Z,86.40
2017-10-19T16:27:33.857Z,86.30
2017-10-19T16:30:35.913Z,86.80
2017-10-19T16:33:39.028Z,87.80
2017-10-19T16:36:42.166Z,88.90
2017-10-19T16:39:44.138Z,88.20
2017-10-19T16:42:46.238Z,88.60
2017-10-19T16:45:48.184Z,89.00
2017-10-19T16:48:50.174Z,89.50
2017-10-19T16:51:52.974Z,90.10
2017-10-19T16:54:54.990Z,90.20
2017-10-19T16:57:56.949Z,90.30
2017-10-19T17:01:00.066Z,90.50
2017-10-19T17:04:02.878Z,90.80
2017-10-19T17:07:05.262Z,90.80
2017-10-19T17:10:08.082Z,91.10
2017-10-19T17:13:10.861Z,91.10
2017-10-19T17:16:13.687Z,91.30
2017-10-19T17:19:15.794Z,91.30
2017-10-19T17:22:17.753Z,91.40
2017-10-19T17:25:20.063Z,91.50
2017-10-19T17:28:22.002Z,91.70
2017-10-19T17:31:24.024Z,91.80
2017-10-19T17:34:25.972Z,91.90
2017-10-19T17:37:29.113Z,92.50
2017-10-19T17:40:31.062Z,92.20
2017-10-19T17:43:33.082Z,92.30
2017-10-19T17:46:35.007Z,92.40
2017-10-19T17:49:37.098Z,92.50
2017-10-19T17:52:40.679Z,92.60
2017-10-19T17:55:43.526Z,92.70
2017-10-19T17:58:45.650Z,92.80
2017-10-19T18:01:47.734Z,92.80
2017-10-19T18:04:49.669Z,93.00
2017-10-19T18:07:51.646Z,93.10
2017-10-19T18:10:53.643Z,93.20
2017-10-19T18:13:56.009Z,93.30
2017-10-19T18:16:58.060Z,93.40
2017-10-19T18:20:00.432Z,93.50
2017-10-19T18:23:03.266Z,93.80
2017-10-19T18:26:05.322Z,93.80
2017-10-19T18:29:07.322Z,93.80
2017-10-19T18:32:10.451Z,94.00
2017-10-19T18:35:12.709Z,94.00
2017-10-19T18:38:15.523Z,94.20
2017-10-19T18:41:18.238Z,94.40
2017-10-19T18:44:20.597Z,94.40
2017-10-19T18:47:22.608Z,94.50
2017-10-19T18:50:24.980Z,94.50
2017-10-19T18:53:27.807Z,94.70
2017-10-19T18:56:29.936Z,94.50
2017-10-19T18:59:31.862Z,94.70
2017-10-19T19:02:34.681Z,94.70
2017-10-19T19:05:36.721Z,94.70
2017-10-19T19:08:38.709Z,94.70
2017-10-19T19:11:40.681Z,94.80
2017-10-19T19:14:43.026Z,94.90
2017-10-19T19:17:44.978Z,94.90
2017-10-19T19:20:47.870Z,95.10
2017-10-19T19:23:49.899Z,95.10
2017-10-19T19:26:52.194Z,95.10
2017-10-19T19:29:54.353Z,95.20
2017-10-19T19:32:57.456Z,95.20
2017-10-19T19:36:00.302Z,95.30
2017-10-19T19:39:02.290Z,95.30
2017-10-19T19:42:04.334Z,95.30
2017-10-19T19:45:07.148Z,95.40
2017-10-19T19:48:09.098Z,95.40
2017-10-19T19:51:12.751Z,95.40
2017-10-19T19:54:14.823Z,95.40
2017-10-19T19:57:17.642Z,95.50
2017-10-19T20:00:19.590Z,95.50
2017-10-19T20:03:21.707Z,95.60
2017-10-19T20:06:23.656Z,95.60
2017-10-19T20:09:27.402Z,95.60
2017-10-19T20:12:30.233Z,95.70
2017-10-19T20:15:32.306Z,95.60
2017-10-19T20:18:34.269Z,95.60
2017-10-19T20:21:37.189Z,96.00
2017-10-19T20:24:40.024Z,95.80
2017-10-19T20:27:42.091Z,95.80
2017-10-19T20:30:44.046Z,95.80
2017-10-19T20:33:46.360Z,95.80
2017-10-19T20:36:49.206Z,95.80
2017-10-19T20:39:52.066Z,95.80
2017-10-19T20:42:54.873Z,95.90
2017-10-19T20:45:57.207Z,95.90
2017-10-19T20:48:59.157Z,95.90
2017-10-19T20:52:01.527Z,95.90
2017-10-19T20:55:03.533Z,95.90
2017-10-19T20:58:05.914Z,95.90
2017-10-19T21:01:07.889Z,95.90
2017-10-19T21:04:10.230Z,95.90
2017-10-19T21:07:12.261Z,95.80
2017-10-19T21:10:15.285Z,95.80
2017-10-19T21:13:17.234Z,95.80
2017-10-19T21:16:19.219Z,95.90
2017-10-19T21:19:21.167Z,95.90
2017-10-19T21:22:23.234Z,96.20
2017-10-19T21:25:25.183Z,95.90
2017-10-19T21:28:28.276Z,96.00
2017-10-19T21:31:30.260Z,96.00
2017-10-19T21:34:32.265Z,96.00
2017-10-19T21:37:34.242Z,96.00
2017-10-19T21:40:37.356Z,96.00
2017-10-19T21:43:39.311Z,96.00
2017-10-19T21:46:41.609Z,96.10
2017-10-19T21:49:43.598Z,96.00
2017-10-19T21:52:46.741Z,96.20
2017-10-19T21:55:48.990Z,96.00
2017-10-19T21:58:51.315Z,96.10
2017-10-19T22:01:53.290Z,96.00
2017-10-19T22:04:55.341Z,96.00
2017-10-19T22:07:57.357Z,96.00
2017-10-19T22:10:59.312Z,96.00
2017-10-19T22:14:01.237Z,95.90
2017-10-19T22:17:03.192Z,95.90
2017-10-19T22:20:06.129Z,95.90
2017-10-19T22:23:08.403Z,95.90
2017-10-19T22:26:10.343Z,95.90
2017-10-19T22:29:12.322Z,95.90
2017-10-19T22:32:14.323Z,95.90
2017-10-19T22:35:16.838Z,95.90
2017-10-19T22:38:19.569Z,95.90
2017-10-19T22:41:21.664Z,95.90
2017-10-19T22:44:23.722Z,95.90
2017-10-19T22:47:25.684Z,95.90
2017-10-19T22:50:28.483Z,95.90
2017-10-19T22:53:31.327Z,95.90
2017-10-19T22:56:33.366Z,95.90
2017-10-19T22:59:35.451Z,95.90
2017-10-19T23:02:37.403Z,95.90
2017-10-19T23:05:39.341Z,95.90
2017-10-19T23:08:41.293Z,95.90
2017-10-19T23:11:43.266Z,95.90
2017-10-19T23:14:45.213Z,96.10
2017-10-19T23:17:47.193Z,96.00
2017-10-19T23:20:49.280Z,96.00
2017-10-19T23:23:51.222Z,95.90
2017-10-19T23:26:54.050Z,95.90
2017-10-19T23:29:56.134Z,95.90
2017-10-19T23:32:58.104Z,95.90
2017-10-19T23:36:00.932Z,95.90
2017-10-19T23:39:02.882Z,95.90
2017-10-19T23:42:05.677Z,95.90
2017-10-19T23:45:08.470Z,95.80
2017-10-19T23:48:10.463Z,95.80
2017-10-19T23:51:12.578Z,95.80
2017-10-19T23:54:14.501Z,95.90
2017-10-19T23:57:16.474Z,96.10
